sensor_id;sensor_type;location;lat;lon;timestamp;pressure;altitude;pressure_sealevel;temperature;humidity
68179;BME280;54998;42.656;23.382;2022-11-12T00:00:10;96226.06;;;7.76;74.60
68179;BME280;54998;42.656;23.382;2022-11-12T00:02:36;96233.91;;;7.73;74.75
68179;BME280;54998;42.656;23.382;2022-11-12T00:05:01;96223.09;;;7.53;75.21
68179;BME280;54998;42.656;23.382;2022-11-12T00:07:26;96216.03;;;7.73;74.63
68179;BME280;54998;42.656;23.382;2022-11-12T00:09:52;96210.19;;;7.85;74.36
68179;BME280;54998;42.656;23.382;2022-11-12T00:12:17;96213.00;;;7.80;74.50
68179;BME280;54998;42.656;23.382;2022-11-12T00:14:43;96210.28;;;7.84;74.41
68179;BME280;54998;42.656;23.382;2022-11-12T00:17:08;96210.19;;;7.85;74.18
68179;BME280;54998;42.656;23.382;2022-11-12T00:19:33;96216.75;;;7.89;74.14
68179;BME280;54998;42.656;23.382;2022-11-12T00:21:59;96210.19;;;7.85;74.25
68179;BME280;54998;42.656;23.382;2022-11-12T00:26:55;96218.75;;;7.84;74.63
68179;BME280;54998;42.656;23.382;2022-11-12T00:29:20;96220.03;;;7.91;74.22
68179;BME280;54998;42.656;23.382;2022-11-12T00:31:45;96222.44;;;7.94;74.04
68179;BME280;54998;42.656;23.382;2022-11-12T00:34:11;96221.44;;;7.97;74.03
68179;BME280;54998;42.656;23.382;2022-11-12T00:36:36;96222.25;;;7.97;74.02
68179;BME280;54998;42.656;23.382;2022-11-12T00:39:03;96218.06;;;7.96;74.21
68179;BME280;54998;42.656;23.382;2022-11-12T00:41:28;96211.19;;;7.82;74.62
68179;BME280;54998;42.656;23.382;2022-11-12T00:43:53;96218.31;;;7.77;74.62
68179;BME280;54998;42.656;23.382;2022-11-12T00:46:19;96218.19;;;7.65;75.31
68179;BME280;54998;42.656;23.382;2022-11-12T00:48:44;96222.75;;;7.74;75.04
68179;BME280;54998;42.656;23.382;2022-11-12T00:51:09;96223.50;;;7.76;74.91
68179;BME280;54998;42.656;23.382;2022-11-12T00:53:35;96219.13;;;7.78;75.09
68179;BME280;54998;42.656;23.382;2022-11-12T00:56:05;96210.09;;;7.87;74.84
68179;BME280;54998;42.656;23.382;2022-11-12T00:58:32;96213.38;;;7.89;74.80
68179;BME280;54998;42.656;23.382;2022-11-12T01:01:07;96203.53;;;7.97;74.77
68179;BME280;54998;42.656;23.382;2022-11-12T01:03:33;96193.28;;;7.82;75.13
68179;BME280;54998;42.656;23.382;2022-11-12T01:06:06;96188.56;;;7.91;74.89
68179;BME280;54998;42.656;23.382;2022-11-12T01:08:32;96194.56;;;7.75;75.03
68179;BME280;54998;42.656;23.382;2022-11-12T01:11:28;96197.03;;;7.77;74.99
68179;BME280;54998;42.656;23.382;2022-11-12T01:14:02;96194.47;;;7.63;75.13
68179;BME280;54998;42.656;23.382;2022-11-12T01:16:31;96197.28;;;7.58;75.32
68179;BME280;54998;42.656;23.382;2022-11-12T01:18:59;96196.81;;;7.51;75.71
68179;BME280;54998;42.656;23.382;2022-11-12T01:21:28;96199.84;;;7.58;75.74
68179;BME280;54998;42.656;23.382;2022-11-12T01:23:56;96187.06;;;7.58;75.85
68179;BME280;54998;42.656;23.382;2022-11-12T01:26:23;96204.59;;;7.64;75.84
68179;BME280;54998;42.656;23.382;2022-11-12T01:28:48;96206.16;;;7.67;75.70
68179;BME280;54998;42.656;23.382;2022-11-12T01:31:16;96199.75;;;7.74;75.60
68179;BME280;54998;42.656;23.382;2022-11-12T01:33:44;96200.97;;;7.68;75.74
68179;BME280;54998;42.656;23.382;2022-11-12T01:36:10;96195.66;;;7.71;75.75
68179;BME280;54998;42.656;23.382;2022-11-12T01:38:38;96196.69;;;7.83;75.45
68179;BME280;54998;42.656;23.382;2022-11-12T01:41:05;96179.03;;;7.78;75.05
68179;BME280;54998;42.656;23.382;2022-11-12T01:43:31;96182.59;;;7.76;75.22
68179;BME280;54998;42.656;23.382;2022-11-12T01:45:58;96170.66;;;7.62;74.80
68179;BME280;54998;42.656;23.382;2022-11-12T01:48:47;96179.00;;;7.50;74.60
68179;BME280;54998;42.656;23.382;2022-11-12T01:51:14;96184.75;;;7.39;74.98
68179;BME280;54998;42.656;23.382;2022-11-12T01:53:45;96184.94;;;7.50;74.99
68179;BME280;54998;42.656;23.382;2022-11-12T01:56:12;96183.13;;;7.52;74.82
68179;BME280;54998;42.656;23.382;2022-11-12T01:58:38;96182.38;;;7.50;74.60
68179;BME280;54998;42.656;23.382;2022-11-12T02:01:29;96175.44;;;7.38;75.06
68179;BME280;54998;42.656;23.382;2022-11-12T02:04:22;96175.59;;;7.35;74.78
68179;BME280;54998;42.656;23.382;2022-11-12T02:06:51;96167.78;;;7.38;74.56
68179;BME280;54998;42.656;23.382;2022-11-12T02:09:18;96174.31;;;7.28;74.63
68179;BME280;54998;42.656;23.382;2022-11-12T02:11:43;96161.75;;;7.25;74.67
68179;BME280;54998;42.656;23.382;2022-11-12T02:14:09;96166.28;;;7.19;74.57
68179;BME280;54998;42.656;23.382;2022-11-12T02:16:44;96176.94;;;7.12;74.95
68179;BME280;54998;42.656;23.382;2022-11-12T02:19:15;96175.06;;;6.99;74.98
68179;BME280;54998;42.656;23.382;2022-11-12T02:21:43;96182.06;;;6.96;74.71
68179;BME280;54998;42.656;23.382;2022-11-12T02:24:35;96190.06;;;6.90;75.12
68179;BME280;54998;42.656;23.382;2022-11-12T02:27:02;96187.59;;;6.88;75.40
68179;BME280;54998;42.656;23.382;2022-11-12T02:29:28;96181.84;;;6.85;75.17
68179;BME280;54998;42.656;23.382;2022-11-12T02:31:54;96178.38;;;6.86;75.50
68179;BME280;54998;42.656;23.382;2022-11-12T02:34:28;96179.34;;;6.99;74.89
68179;BME280;54998;42.656;23.382;2022-11-12T02:36:54;96185.53;;;6.95;74.58
68179;BME280;54998;42.656;23.382;2022-11-12T02:39:21;96185.28;;;6.99;74.37
68179;BME280;54998;42.656;23.382;2022-11-12T02:41:49;96184.28;;;7.02;73.99
68179;BME280;54998;42.656;23.382;2022-11-12T02:44:15;96190.94;;;7.05;74.00
68179;BME280;54998;42.656;23.382;2022-11-12T02:46:40;96182.66;;;7.15;73.23
68179;BME280;54998;42.656;23.382;2022-11-12T02:51:59;96177.22;;;6.91;73.38
68179;BME280;54998;42.656;23.382;2022-11-12T02:54:32;96178.72;;;6.79;74.07
68179;BME280;54998;42.656;23.382;2022-11-12T02:57:06;96178.56;;;6.67;74.11
68179;BME280;54998;42.656;23.382;2022-11-12T02:59:34;96156.59;;;6.48;75.05
68179;BME280;54998;42.656;23.382;2022-11-12T03:01:59;96175.38;;;6.47;75.54
68179;BME280;54998;42.656;23.382;2022-11-12T03:04:25;96164.34;;;6.47;75.84
68179;BME280;54998;42.656;23.382;2022-11-12T03:06:50;96177.84;;;6.49;75.56
68179;BME280;54998;42.656;23.382;2022-11-12T03:09:16;96171.91;;;6.48;75.33
68179;BME280;54998;42.656;23.382;2022-11-12T03:11:41;96175.38;;;6.31;76.13
68179;BME280;54998;42.656;23.382;2022-11-12T03:14:07;96180.94;;;6.22;76.82
68179;BME280;54998;42.656;23.382;2022-11-12T03:16:32;96178.88;;;6.13;76.84
68179;BME280;54998;42.656;23.382;2022-11-12T03:19:01;96184.16;;;6.10;76.90
68179;BME280;54998;42.656;23.382;2022-11-12T03:21:26;96177.13;;;5.97;77.24
68179;BME280;54998;42.656;23.382;2022-11-12T03:23:51;96180.78;;;5.92;77.41
68179;BME280;54998;42.656;23.382;2022-11-12T03:26:17;96186.13;;;5.87;77.59
68179;BME280;54998;42.656;23.382;2022-11-12T03:28:42;96182.94;;;5.84;78.17
68179;BME280;54998;42.656;23.382;2022-11-12T03:31:08;96179.69;;;5.80;78.58
68179;BME280;54998;42.656;23.382;2022-11-12T03:33:36;96180.63;;;5.79;79.18
68179;BME280;54998;42.656;23.382;2022-11-12T03:36:03;96181.34;;;5.81;79.09
68179;BME280;54998;42.656;23.382;2022-11-12T03:38:29;96187.28;;;5.82;78.95
68179;BME280;54998;42.656;23.382;2022-11-12T03:40:54;96182.31;;;5.79;79.11
68179;BME280;54998;42.656;23.382;2022-11-12T03:43:20;96186.84;;;5.73;78.90
68179;BME280;54998;42.656;23.382;2022-11-12T03:45:45;96189.75;;;5.66;79.44
68179;BME280;54998;42.656;23.382;2022-11-12T03:48:11;96185.63;;;5.63;79.39
68179;BME280;54998;42.656;23.382;2022-11-12T03:50:36;96189.75;;;5.66;79.78
68179;BME280;54998;42.656;23.382;2022-11-12T03:53:02;96188.81;;;5.68;79.38
68179;BME280;54998;42.656;23.382;2022-11-12T03:55:28;96183.03;;;5.65;79.14
68179;BME280;54998;42.656;23.382;2022-11-12T03:57:55;96183.78;;;5.67;79.13
68179;BME280;54998;42.656;23.382;2022-11-12T04:00:25;96188.06;;;5.66;79.16
68179;BME280;54998;42.656;23.382;2022-11-12T04:02:53;96196.66;;;5.64;79.23
68179;BME280;54998;42.656;23.382;2022-11-12T04:05:19;96195.00;;;5.63;79.34
68179;BME280;54998;42.656;23.382;2022-11-12T04:08:11;96183.50;;;5.55;79.12
68179;BME280;54998;42.656;23.382;2022-11-12T04:10:56;96186.84;;;5.56;79.35
68179;BME280;54998;42.656;23.382;2022-11-12T04:13:21;96187.91;;;5.52;79.26
68179;BME280;54998;42.656;23.382;2022-11-12T04:18:48;96175.94;;;5.37;80.21
68179;BME280;54998;42.656;23.382;2022-11-12T04:21:44;96170.91;;;5.35;79.78
68179;BME280;54998;42.656;23.382;2022-11-12T04:27:59;96170.03;;;5.19;79.70
68179;BME280;54998;42.656;23.382;2022-11-12T04:30:24;96158.38;;;5.14;80.18
68179;BME280;54998;42.656;23.382;2022-11-12T04:32:51;96154.78;;;5.19;80.34
68179;BME280;54998;42.656;23.382;2022-11-12T04:35:19;96152.81;;;5.24;80.20
68179;BME280;54998;42.656;23.382;2022-11-12T04:40:17;96165.31;;;5.28;79.80
68179;BME280;54998;42.656;23.382;2022-11-12T04:43:03;96172.88;;;5.30;79.86
68179;BME280;54998;42.656;23.382;2022-11-12T04:45:49;96168.38;;;5.35;79.67
68179;BME280;54998;42.656;23.382;2022-11-12T04:48:15;96170.56;;;5.43;79.26
68179;BME280;54998;42.656;23.382;2022-11-12T04:50:43;96174.66;;;5.45;78.93
68179;BME280;54998;42.656;23.382;2022-11-12T04:53:09;96181.75;;;5.56;78.47
68179;BME280;54998;42.656;23.382;2022-11-12T04:55:34;96186.16;;;5.70;77.96
68179;BME280;54998;42.656;23.382;2022-11-12T04:58:00;96183.88;;;5.81;77.30
68179;BME280;54998;42.656;23.382;2022-11-12T05:00:26;96179.53;;;5.83;77.02
68179;BME280;54998;42.656;23.382;2022-11-12T05:02:51;96190.03;;;5.94;76.18
68179;BME280;54998;42.656;23.382;2022-11-12T05:05:16;96179.44;;;6.02;75.72
68179;BME280;54998;42.656;23.382;2022-11-12T05:07:42;96183.91;;;6.14;74.84
68179;BME280;54998;42.656;23.382;2022-11-12T05:10:08;96191.31;;;6.19;74.79
68179;BME280;54998;42.656;23.382;2022-11-12T05:12:34;96186.88;;;6.23;74.47
68179;BME280;54998;42.656;23.382;2022-11-12T05:14:59;96194.59;;;6.21;74.00
68179;BME280;54998;42.656;23.382;2022-11-12T05:17:24;96197.53;;;6.13;73.97
68179;BME280;54998;42.656;23.382;2022-11-12T05:19:50;96203.00;;;6.23;73.70
68179;BME280;54998;42.656;23.382;2022-11-12T05:22:15;96204.47;;;6.27;73.19
68179;BME280;54998;42.656;23.382;2022-11-12T05:24:42;96206.72;;;6.33;72.89
68179;BME280;54998;42.656;23.382;2022-11-12T05:27:17;96203.25;;;6.34;72.25
68179;BME280;54998;42.656;23.382;2022-11-12T05:29:43;96201.94;;;6.43;71.76
68179;BME280;54998;42.656;23.382;2022-11-12T05:32:11;96205.16;;;6.47;71.59
68179;BME280;54998;42.656;23.382;2022-11-12T05:34:37;96203.25;;;6.50;71.39
68179;BME280;54998;42.656;23.382;2022-11-12T05:37:04;96210.41;;;6.44;71.27
68179;BME280;54998;42.656;23.382;2022-11-12T05:39:30;96209.50;;;6.45;71.30
68179;BME280;54998;42.656;23.382;2022-11-12T05:41:56;96212.38;;;6.54;71.13
68179;BME280;54998;42.656;23.382;2022-11-12T05:44:21;96206.38;;;6.71;71.45
68179;BME280;54998;42.656;23.382;2022-11-12T05:46:47;96212.19;;;7.05;70.29
68179;BME280;54998;42.656;23.382;2022-11-12T05:49:13;96212.16;;;7.51;67.00
68179;BME280;54998;42.656;23.382;2022-11-12T05:51:38;96208.38;;;7.87;65.32
68179;BME280;54998;42.656;23.382;2022-11-12T05:54:04;96210.63;;;8.35;64.08
68179;BME280;54998;42.656;23.382;2022-11-12T05:56:30;96212.63;;;8.73;62.73
68179;BME280;54998;42.656;23.382;2022-11-12T05:58:55;96212.84;;;8.82;61.26
68179;BME280;54998;42.656;23.382;2022-11-12T06:01:21;96212.13;;;9.48;60.04
68179;BME280;54998;42.656;23.382;2022-11-12T06:03:46;96213.59;;;10.41;57.00
68179;BME280;54998;42.656;23.382;2022-11-12T06:06:12;96211.81;;;11.62;53.46
68179;BME280;54998;42.656;23.382;2022-11-12T06:08:37;96214.72;;;12.61;51.20
68179;BME280;54998;42.656;23.382;2022-11-12T06:11:03;96224.06;;;13.60;47.81
68179;BME280;54998;42.656;23.382;2022-11-12T06:13:28;96227.50;;;14.12;46.56
68179;BME280;54998;42.656;23.382;2022-11-12T06:15:54;96222.09;;;13.52;46.75
68179;BME280;54998;42.656;23.382;2022-11-12T06:18:20;96227.63;;;13.48;47.08
68179;BME280;54998;42.656;23.382;2022-11-12T06:20:46;96230.97;;;14.02;45.87
68179;BME280;54998;42.656;23.382;2022-11-12T06:23:31;96221.19;;;14.67;44.17
68179;BME280;54998;42.656;23.382;2022-11-12T06:25:57;96221.97;;;15.66;42.05
68179;BME280;54998;42.656;23.382;2022-11-12T06:28:22;96215.22;;;16.12;40.30
68179;BME280;54998;42.656;23.382;2022-11-12T06:30:48;96209.59;;;16.27;39.70
68179;BME280;54998;42.656;23.382;2022-11-12T06:33:13;96206.75;;;15.34;42.00
68179;BME280;54998;42.656;23.382;2022-11-12T06:35:38;96216.44;;;14.31;43.31
68179;BME280;54998;42.656;23.382;2022-11-12T06:38:04;96220.75;;;13.37;45.05
68179;BME280;54998;42.656;23.382;2022-11-12T06:40:29;96218.13;;;11.94;48.57
68179;BME280;54998;42.656;23.382;2022-11-12T06:42:56;96236.50;;;11.65;49.57
68179;BME280;54998;42.656;23.382;2022-11-12T06:45:21;96229.56;;;11.43;50.28
68179;BME280;54998;42.656;23.382;2022-11-12T06:47:47;96239.56;;;11.10;51.09
68179;BME280;54998;42.656;23.382;2022-11-12T06:50:12;96236.41;;;10.70;52.25
68179;BME280;54998;42.656;23.382;2022-11-12T06:52:38;96241.72;;;10.04;54.00
68179;BME280;54998;42.656;23.382;2022-11-12T06:55:04;96238.53;;;10.01;54.34
68179;BME280;54998;42.656;23.382;2022-11-12T06:57:29;96232.38;;;9.91;54.69
68179;BME280;54998;42.656;23.382;2022-11-12T06:59:55;96238.19;;;9.80;55.20
68179;BME280;54998;42.656;23.382;2022-11-12T07:02:20;96246.53;;;9.96;54.31
68179;BME280;54998;42.656;23.382;2022-11-12T07:04:46;96239.59;;;9.58;53.86
68179;BME280;54998;42.656;23.382;2022-11-12T07:07:11;96238.13;;;9.01;54.66
68179;BME280;54998;42.656;23.382;2022-11-12T07:09:37;96236.06;;;9.34;54.49
68179;BME280;54998;42.656;23.382;2022-11-12T07:12:02;96233.19;;;9.65;53.66
68179;BME280;54998;42.656;23.382;2022-11-12T07:14:27;96235.03;;;10.15;51.72
68179;BME280;54998;42.656;23.382;2022-11-12T07:16:53;96228.34;;;10.25;52.00
68179;BME280;54998;42.656;23.382;2022-11-12T07:19:18;96228.44;;;10.49;50.83
68179;BME280;54998;42.656;23.382;2022-11-12T07:21:44;96225.72;;;11.24;48.40
68179;BME280;54998;42.656;23.382;2022-11-12T07:24:09;96222.72;;;12.12;46.22
68179;BME280;54998;42.656;23.382;2022-11-12T07:26:34;96223.09;;;13.61;43.45
68179;BME280;54998;42.656;23.382;2022-11-12T07:29:00;96223.91;;;14.55;40.50
68179;BME280;54998;42.656;23.382;2022-11-12T07:31:25;96222.22;;;14.95;39.70
68179;BME280;54998;42.656;23.382;2022-11-12T07:33:52;96217.75;;;14.26;40.74
68179;BME280;54998;42.656;23.382;2022-11-12T07:36:19;96227.63;;;13.48;42.38
68179;BME280;54998;42.656;23.382;2022-11-12T07:38:45;96223.53;;;13.02;43.11
68179;BME280;54998;42.656;23.382;2022-11-12T07:41:12;96231.47;;;12.44;44.46
68179;BME280;54998;42.656;23.382;2022-11-12T07:43:40;96227.25;;;12.20;45.15
68179;BME280;54998;42.656;23.382;2022-11-12T07:46:15;96228.28;;;11.24;47.86
68179;BME280;54998;42.656;23.382;2022-11-12T07:48:41;96234.47;;;11.22;47.97
68179;BME280;54998;42.656;23.382;2022-11-12T07:51:14;96223.13;;;11.13;48.56
68179;BME280;54998;42.656;23.382;2022-11-12T07:53:41;96229.81;;;11.27;48.11
68179;BME280;54998;42.656;23.382;2022-11-12T07:56:09;96237.28;;;10.82;48.84
68179;BME280;54998;42.656;23.382;2022-11-12T07:58:35;96232.59;;;10.00;50.97
68179;BME280;54998;42.656;23.382;2022-11-12T08:01:08;96233.94;;;9.40;52.63
68179;BME280;54998;42.656;23.382;2022-11-12T08:03:34;96247.72;;;9.52;52.84
68179;BME280;54998;42.656;23.382;2022-11-12T08:06:00;96254.19;;;9.18;53.68
68179;BME280;54998;42.656;23.382;2022-11-12T08:08:26;96250.81;;;8.76;55.38
68179;BME280;54998;42.656;23.382;2022-11-12T08:10:55;96252.19;;;8.67;55.67
68179;BME280;54998;42.656;23.382;2022-11-12T08:13:21;96244.69;;;8.78;55.81
68179;BME280;54998;42.656;23.382;2022-11-12T08:15:47;96251.72;;;8.89;55.31
68179;BME280;54998;42.656;23.382;2022-11-12T08:18:12;96248.38;;;9.01;55.42
68179;BME280;54998;42.656;23.382;2022-11-12T08:20:38;96251.56;;;9.05;55.36
68179;BME280;54998;42.656;23.382;2022-11-12T08:23:03;96261.16;;;9.01;55.07
68179;BME280;54998;42.656;23.382;2022-11-12T08:25:28;96256.69;;;9.05;54.64
68179;BME280;54998;42.656;23.382;2022-11-12T08:27:58;96250.41;;;8.96;54.97
68179;BME280;54998;42.656;23.382;2022-11-12T08:30:24;96257.53;;;8.91;55.22
68179;BME280;54998;42.656;23.382;2022-11-12T08:33:01;96262.63;;;8.64;55.28
68179;BME280;54998;42.656;23.382;2022-11-12T08:35:29;96257.34;;;8.94;55.03
68179;BME280;54998;42.656;23.382;2022-11-12T08:38:00;96259.97;;;9.07;54.23
68179;BME280;54998;42.656;23.382;2022-11-12T08:40:28;96256.44;;;9.22;54.13
68179;BME280;54998;42.656;23.382;2022-11-12T08:42:58;96262.84;;;9.42;54.13
68179;BME280;54998;42.656;23.382;2022-11-12T08:45:24;96268.81;;;9.16;54.22
68179;BME280;54998;42.656;23.382;2022-11-12T08:47:50;96262.75;;;9.17;54.08
68179;BME280;54998;42.656;23.382;2022-11-12T08:50:15;96268.38;;;9.09;54.18
68179;BME280;54998;42.656;23.382;2022-11-12T08:52:40;96261.66;;;8.94;54.70
68179;BME280;54998;42.656;23.382;2022-11-12T08:55:06;96270.53;;;8.88;55.29
68179;BME280;54998;42.656;23.382;2022-11-12T08:57:39;96264.75;;;8.99;54.97
68179;BME280;54998;42.656;23.382;2022-11-12T09:00:04;96260.34;;;9.28;54.87
68179;BME280;54998;42.656;23.382;2022-11-12T09:02:30;96255.75;;;9.06;54.88
68179;BME280;54998;42.656;23.382;2022-11-12T09:04:56;96261.03;;;9.57;54.32
68179;BME280;54998;42.656;23.382;2022-11-12T09:07:21;96257.59;;;10.10;52.03
68179;BME280;54998;42.656;23.382;2022-11-12T09:09:46;96247.88;;;10.40;51.72
68179;BME280;54998;42.656;23.382;2022-11-12T09:12:12;96253.53;;;10.45;50.70
68179;BME280;54998;42.656;23.382;2022-11-12T09:14:43;96245.63;;;11.34;48.88
68179;BME280;54998;42.656;23.382;2022-11-12T09:17:08;96252.16;;;11.73;47.60
68179;BME280;54998;42.656;23.382;2022-11-12T09:19:33;96249.59;;;11.73;48.03
68179;BME280;54998;42.656;23.382;2022-11-12T09:21:59;96252.41;;;11.10;49.50
68179;BME280;54998;42.656;23.382;2022-11-12T09:24:24;96257.69;;;10.59;50.58
68179;BME280;54998;42.656;23.382;2022-11-12T09:26:52;96266.34;;;10.07;51.76
68179;BME280;54998;42.656;23.382;2022-11-12T09:29:17;96261.47;;;9.64;53.41
68179;BME280;54998;42.656;23.382;2022-11-12T09:31:43;96253.91;;;9.35;53.67
68179;BME280;54998;42.656;23.382;2022-11-12T09:34:09;96258.66;;;9.14;54.92
68179;BME280;54998;42.656;23.382;2022-11-12T09:36:34;96251.31;;;8.95;55.28
68179;BME280;54998;42.656;23.382;2022-11-12T09:39:00;96249.91;;;8.77;55.57
68179;BME280;54998;42.656;23.382;2022-11-12T09:41:41;96259.72;;;8.56;54.16
68179;BME280;54998;42.656;23.382;2022-11-12T09:49:11;96260.31;;;8.74;53.92
68179;BME280;54998;42.656;23.382;2022-11-12T09:51:42;96252.75;;;8.99;52.83
68179;BME280;54998;42.656;23.382;2022-11-12T09:54:12;96254.72;;;8.96;52.82
68179;BME280;54998;42.656;23.382;2022-11-12T09:56:42;96257.88;;;8.99;52.69
68179;BME280;54998;42.656;23.382;2022-11-12T09:59:11;96252.31;;;8.93;53.50
68179;BME280;54998;42.656;23.382;2022-11-12T10:09:30;96254.59;;;8.97;53.80
68179;BME280;54998;42.656;23.382;2022-11-12T10:12:07;96259.88;;;9.09;53.72
68179;BME280;54998;42.656;23.382;2022-11-12T10:18:13;96253.09;;;9.35;52.52
68179;BME280;54998;42.656;23.382;2022-11-12T10:20:54;96258.69;;;9.54;52.59
68179;BME280;54998;42.656;23.382;2022-11-12T10:23:38;96255.94;;;9.70;51.58
68179;BME280;54998;42.656;23.382;2022-11-12T10:26:16;96255.28;;;9.54;51.89
68179;BME280;54998;42.656;23.382;2022-11-12T10:31:19;96249.31;;;9.40;53.06
68179;BME280;54998;42.656;23.382;2022-11-12T10:33:44;96249.47;;;9.24;53.72
68179;BME280;54998;42.656;23.382;2022-11-12T10:36:19;96256.41;;;9.10;54.47
68179;BME280;54998;42.656;23.382;2022-11-12T10:38:50;96261.59;;;8.81;54.87
68179;BME280;54998;42.656;23.382;2022-11-12T10:43:52;96251.00;;;8.58;55.31
68179;BME280;54998;42.656;23.382;2022-11-12T10:46:26;96252.75;;;8.72;55.27
68179;BME280;54998;42.656;23.382;2022-11-12T10:48:55;96261.16;;;8.74;55.21
68179;BME280;54998;42.656;23.382;2022-11-12T10:51:28;96251.09;;;8.71;56.13
68179;BME280;54998;42.656;23.382;2022-11-12T10:53:54;96251.28;;;8.68;55.89
68179;BME280;54998;42.656;23.382;2022-11-12T10:56:30;96255.16;;;8.61;56.74
68179;BME280;54998;42.656;23.382;2022-11-12T11:01:41;96261.47;;;8.82;56.83
68179;BME280;54998;42.656;23.382;2022-11-12T11:07:14;96261.44;;;8.55;57.51
68179;BME280;54998;42.656;23.382;2022-11-12T11:09:52;96249.50;;;8.41;58.22
68179;BME280;54998;42.656;23.382;2022-11-12T11:12:31;96245.25;;;8.26;59.23
68179;BME280;54998;42.656;23.382;2022-11-12T11:15:22;96249.09;;;8.48;58.34
68179;BME280;54998;42.656;23.382;2022-11-12T11:17:48;96244.50;;;8.67;58.77
68179;BME280;54998;42.656;23.382;2022-11-12T11:22:54;96241.84;;;9.10;56.54
68179;BME280;54998;42.656;23.382;2022-11-12T11:25:26;96242.78;;;9.49;55.35
68179;BME280;54998;42.656;23.382;2022-11-12T11:30:49;96238.84;;;9.83;54.69
68179;BME280;54998;42.656;23.382;2022-11-12T11:33:28;96242.31;;;9.95;54.10
68179;BME280;54998;42.656;23.382;2022-11-12T11:39:23;96244.22;;;9.53;55.13
68179;BME280;54998;42.656;23.382;2022-11-12T11:47:34;96244.88;;;9.30;55.98
68179;BME280;54998;42.656;23.382;2022-11-12T11:50:26;96237.78;;;9.20;56.83
68179;BME280;54998;42.656;23.382;2022-11-12T11:55:37;96238.00;;;9.17;56.31
68179;BME280;54998;42.656;23.382;2022-11-12T12:00:59;96232.41;;;9.38;55.69
68179;BME280;54998;42.656;23.382;2022-11-12T12:06:52;96242.00;;;8.94;57.17
68179;BME280;54998;42.656;23.382;2022-11-12T12:12:22;96221.41;;;9.23;55.74
68179;BME280;54998;42.656;23.382;2022-11-12T12:15:01;96225.47;;;9.53;55.28
68179;BME280;54998;42.656;23.382;2022-11-12T12:20:37;96221.38;;;9.63;54.50
68179;BME280;54998;42.656;23.382;2022-11-12T12:23:12;96225.59;;;9.64;54.89
68179;BME280;54998;42.656;23.382;2022-11-12T12:25:42;96228.88;;;9.66;54.55
68179;BME280;54998;42.656;23.382;2022-11-12T12:30:41;96218.63;;;9.13;56.20
68179;BME280;54998;42.656;23.382;2022-11-12T12:33:24;96228.34;;;9.21;55.86
68179;BME280;54998;42.656;23.382;2022-11-12T12:36:01;96228.75;;;9.15;56.41
68179;BME280;54998;42.656;23.382;2022-11-12T12:38:39;96236.44;;;8.88;57.04
68179;BME280;54998;42.656;23.382;2022-11-12T12:41:24;96229.88;;;8.83;57.20
68179;BME280;54998;42.656;23.382;2022-11-12T12:43:57;96235.28;;;8.79;57.96
68179;BME280;54998;42.656;23.382;2022-11-12T12:46:28;96222.28;;;8.82;57.61
68179;BME280;54998;42.656;23.382;2022-11-12T12:48:57;96220.56;;;8.95;57.91
68179;BME280;54998;42.656;23.382;2022-11-12T12:51:27;96227.53;;;8.93;58.32
68179;BME280;54998;42.656;23.382;2022-11-12T12:53:54;96237.47;;;8.71;59.45
68179;BME280;54998;42.656;23.382;2022-11-12T12:58:49;96229.19;;;8.53;61.28
68179;BME280;54998;42.656;23.382;2022-11-12T13:03:59;96233.03;;;8.31;63.22
68179;BME280;54998;42.656;23.382;2022-11-12T13:06:33;96222.16;;;8.13;64.17
68179;BME280;54998;42.656;23.382;2022-11-12T13:09:00;96234.50;;;8.35;64.17
68179;BME280;54998;42.656;23.382;2022-11-12T13:35:33;96257.34;;;7.65;67.50
68179;BME280;54998;42.656;23.382;2022-11-12T13:40:54;96259.41;;;7.58;68.10
68179;BME280;54998;42.656;23.382;2022-11-12T13:43:42;96254.50;;;7.55;67.25
68179;BME280;54998;42.656;23.382;2022-11-12T13:46:16;96253.41;;;7.59;68.05
68179;BME280;54998;42.656;23.382;2022-11-12T13:48:47;96248.47;;;7.56;68.24
68179;BME280;54998;42.656;23.382;2022-11-12T13:53:44;96238.84;;;7.46;68.99
68179;BME280;54998;42.656;23.382;2022-11-12T13:56:11;96249.59;;;7.36;70.34
68179;BME280;54998;42.656;23.382;2022-11-12T13:58:37;96244.34;;;7.39;70.36
68179;BME280;54998;42.656;23.382;2022-11-12T14:01:09;96239.63;;;7.32;70.21
68179;BME280;54998;42.656;23.382;2022-11-12T14:03:47;96239.81;;;7.29;70.99
68179;BME280;54998;42.656;23.382;2022-11-12T14:09:01;96249.31;;;7.57;69.82
68179;BME280;54998;42.656;23.382;2022-11-12T14:22:34;96242.63;;;7.54;69.94
68179;BME280;54998;42.656;23.382;2022-11-12T14:25:01;96240.72;;;7.58;69.99
68179;BME280;54998;42.656;23.382;2022-11-12T14:30:12;96255.34;;;7.40;70.40
68179;BME280;54998;42.656;23.382;2022-11-12T14:32:41;96247.13;;;7.35;71.06
68179;BME280;54998;42.656;23.382;2022-11-12T14:37:56;96250.94;;;7.28;71.28
68179;BME280;54998;42.656;23.382;2022-11-12T14:40:24;96249.41;;;7.09;71.80
68179;BME280;54998;42.656;23.382;2022-11-12T14:42:51;96243.38;;;7.10;72.02
68179;BME280;54998;42.656;23.382;2022-11-12T14:45:19;96245.34;;;7.21;71.45
68179;BME280;54998;42.656;23.382;2022-11-12T14:47:47;96242.88;;;7.19;71.42
68179;BME280;54998;42.656;23.382;2022-11-12T14:52:44;96237.44;;;7.26;71.86
68179;BME280;54998;42.656;23.382;2022-11-12T14:55:16;96236.13;;;7.18;71.54
68179;BME280;54998;42.656;23.382;2022-11-12T14:57:44;96246.09;;;7.23;71.18
68179;BME280;54998;42.656;23.382;2022-11-12T15:00:34;96247.34;;;7.16;71.73
68179;BME280;54998;42.656;23.382;2022-11-12T15:03:01;96256.22;;;7.09;71.85
68179;BME280;54998;42.656;23.382;2022-11-12T15:05:27;96246.50;;;7.15;71.10
68179;BME280;54998;42.656;23.382;2022-11-12T15:10:43;96234.06;;;7.25;70.53
68179;BME280;54998;42.656;23.382;2022-11-12T15:15:39;96226.06;;;7.15;70.60
68179;BME280;54998;42.656;23.382;2022-11-12T15:18:16;96232.69;;;7.04;71.28
68179;BME280;54998;42.656;23.382;2022-11-12T15:20:43;96237.13;;;7.00;71.65